Time,TemperatureF,DewpointF,PressureIn,WindDirection,WindDirectionDegrees,WindSpeedMPH,WindSpeedGustMPH,Humidity,HourlyPrecipIn,Conditions,Clouds,dailyrainin,SolarRadiationWatts/m^2,SoftwareType,DateUTC
2013-08-21 00:08:00,67.7,31.0,29.83,WNW,284,6.0,-999.0,25,-99.99,,,0.00,0,weatherlink.com 1.10,2013-08-21 07:08:00,
2013-08-21 00:23:00,67.1,30.0,29.83,West,281,7.0,-999.0,25,-99.99,,,0.00,0,weatherlink.com 1.10,2013-08-21 07:23:00,
2013-08-21 00:38:00,66.5,30.0,29.83,WNW,285,3.0,-999.0,25,-99.99,,,0.00,0,weatherlink.com 1.10,2013-08-21 07:38:00,
2013-08-21 00:53:00,66.1,29.0,29.84,WNW,287,5.0,-999.0,25,-99.99,,,0.00,0,weatherlink.com 1.10,2013-08-21 07:53:00,
2013-08-21 01:08:00,66.0,29.0,29.84,WNW,291,5.0,-999.0,25,-99.99,,,0.00,0,weatherlink.com 1.10,2013-08-21 08:08:00,
2013-08-21 01:23:00,66.2,29.0,29.84,WNW,290,5.0,-999.0,25,-99.99,,,0.00,0,weatherlink.com 1.10,2013-08-21 08:23:00,
2013-08-21 01:38:00,65.9,29.0,29.84,WNW,290,4.0,-999.0,25,-99.99,,,0.00,0,weatherlink.com 1.10,2013-08-21 08:38:00,
2013-08-21 01:53:00,65.8,29.0,29.84,WNW,290,3.0,-999.0,25,-99.99,,,0.00,0,weatherlink.com 1.10,2013-08-21 08:53:00,
2013-08-21 02:08:00,65.4,29.0,29.83,WNW,290,3.0,-999.0,26,-99.99,,,0.00,0,weatherlink.com 1.10,2013-08-21 09:08:00,
2013-08-21 02:23:00,64.6,29.0,29.83,WNW,288,3.0,-999.0,26,-99.99,,,0.00,0,weatherlink.com 1.10,2013-08-21 09:23:00,
2013-08-21 02:38:00,64.9,30.0,29.82,WNW,286,2.0,-999.0,27,-99.99,,,0.00,0,weatherlink.com 1.10,2013-08-21 09:38:00,
2013-08-21 02:53:00,64.9,30.0,29.82,WNW,286,2.0,-999.0,27,-99.99,,,0.00,0,weatherlink.com 1.10,2013-08-21 09:53:00,
2013-08-21 03:08:00,64.3,30.0,29.82,WNW,286,2.0,-999.0,28,-99.99,,,0.00,0,weatherlink.com 1.10,2013-08-21 10:08:00,
2013-08-21 03:23:00,64.0,32.0,29.82,WNW,285,3.0,-999.0,30,-99.99,,,0.00,0,weatherlink.com 1.10,2013-08-21 10:23:00,
2013-08-21 03:38:00,63.6,31.0,29.82,West,269,3.0,-999.0,29,-99.99,,,0.00,0,weatherlink.com 1.10,2013-08-21 10:38:00,
2013-08-21 03:53:00,64.6,33.0,29.81,West,270,3.0,-999.0,31,-99.99,,,0.00,0,weatherlink.com 1.10,2013-08-21 10:53:00,
2013-08-21 04:08:00,64.5,32.0,29.81,West,270,3.0,-999.0,30,-99.99,,,0.00,0,weatherlink.com 1.10,2013-08-21 11:08:00,
2013-08-21 04:23:00,63.0,32.0,29.81,West,270,3.0,-999.0,31,-99.99,,,0.00,0,weatherlink.com 1.10,2013-08-21 11:23:00,
2013-08-21 04:38:00,63.2,33.0,29.81,West,269,4.0,-999.0,33,-99.99,,,0.00,0,weatherlink.com 1.10,2013-08-21 11:38:00,
2013-08-21 04:53:00,63.1,34.0,29.81,West,269,3.0,-999.0,34,-99.99,,,0.00,0,weatherlink.com 1.10,2013-08-21 11:53:00,
2013-08-21 05:08:00,62.9,35.0,29.81,West,269,2.0,-999.0,35,-99.99,,,0.00,0,weatherlink.com 1.10,2013-08-21 12:08:00,
2013-08-21 05:23:00,63.6,36.0,29.81,West,269,2.0,-999.0,36,-99.99,,,0.00,0,weatherlink.com 1.10,2013-08-21 12:23:00,
2013-08-21 05:38:00,62.2,34.0,29.81,West,267,4.0,-999.0,35,-99.99,,,0.00,0,weatherlink.com 1.10,2013-08-21 12:38:00,
2013-08-21 05:53:00,62.0,35.0,29.81,West,260,5.0,-999.0,36,-99.99,,,0.00,0,weatherlink.com 1.10,2013-08-21 12:53:00,
2013-08-21 06:08:00,62.5,36.0,29.81,West,262,2.0,-999.0,38,-99.99,,,0.00,0,weatherlink.com 1.10,2013-08-21 13:08:00,
2013-08-21 06:23:00,62.2,37.0,29.81,West,262,1.0,-999.0,39,-99.99,,,0.00,7,weatherlink.com 1.10,2013-08-21 13:23:00,
2013-08-21 06:38:00,61.9,37.0,29.81,West,262,3.0,-999.0,40,-99.99,,,0.00,19,weatherlink.com 1.10,2013-08-21 13:38:00,
2013-08-21 06:53:00,61.3,37.0,29.81,West,263,2.0,-999.0,40,-99.99,,,0.00,35,weatherlink.com 1.10,2013-08-21 13:53:00,
2013-08-21 07:08:00,61.9,38.0,29.82,West,263,2.0,-999.0,41,-99.99,,,0.00,67,weatherlink.com 1.10,2013-08-21 14:08:00,
2013-08-21 07:23:00,62.2,37.0,29.82,West,263,0.0,-999.0,40,-99.99,,,0.00,56,weatherlink.com 1.10,2013-08-21 14:23:00,
2013-08-21 07:38:00,62.3,38.0,29.83,West,263,0.0,-999.0,41,-99.99,,,0.00,77,weatherlink.com 1.10,2013-08-21 14:38:00,
2013-08-21 07:53:00,62.7,39.0,29.83,West,263,1.0,-999.0,42,-99.99,,,0.00,118,weatherlink.com 1.10,2013-08-21 14:53:00,
2013-08-21 08:08:00,63.1,39.0,29.83,West,263,3.0,-999.0,42,-99.99,,,0.00,130,weatherlink.com 1.10,2013-08-21 15:08:00,
2013-08-21 08:23:00,63.4,39.0,29.83,West,263,3.0,-999.0,41,-99.99,,,0.00,158,weatherlink.com 1.10,2013-08-21 15:23:00,
2013-08-21 08:38:00,63.6,39.0,29.83,West,263,3.0,-999.0,41,-99.99,,,0.00,146,weatherlink.com 1.10,2013-08-21 15:38:00,
2013-08-21 08:53:00,64.8,40.0,29.83,NW,323,7.0,-999.0,41,-99.99,,,0.00,204,weatherlink.com 1.10,2013-08-21 15:53:00,
2013-08-21 09:08:00,65.5,42.0,29.84,North,350,2.0,-999.0,43,-99.99,,,0.00,287,weatherlink.com 1.10,2013-08-21 16:08:00,
2013-08-21 09:23:00,65.4,43.0,29.84,North,355,5.0,-999.0,45,-99.99,,,0.00,214,weatherlink.com 1.10,2013-08-21 16:23:00,
2013-08-21 09:38:00,65.6,42.0,29.83,North,355,0.0,-999.0,42,-99.99,,,0.00,555,weatherlink.com 1.10,2013-08-21 16:38:00,
2013-08-21 09:53:00,67.4,41.0,29.83,NNE,24,2.0,-999.0,39,-99.99,,,0.00,577,weatherlink.com 1.10,2013-08-21 16:53:00,
2013-08-21 10:08:00,69.0,42.0,29.83,NE,39,5.0,-999.0,37,-99.99,,,0.00,619,weatherlink.com 1.10,2013-08-21 17:08:00,
2013-08-21 10:23:00,70.2,40.0,29.83,ENE,60,5.0,-999.0,34,-99.99,,,0.00,649,weatherlink.com 1.10,2013-08-21 17:23:00,
2013-08-21 10:38:00,70.5,39.0,29.83,NNW,329,7.0,-999.0,32,-99.99,,,0.00,297,weatherlink.com 1.10,2013-08-21 17:38:00,
2013-08-21 10:53:00,70.7,41.0,29.83,NNE,18,6.0,-999.0,34,-99.99,,,0.00,731,weatherlink.com 1.10,2013-08-21 17:53:00,
2013-08-21 11:08:00,71.6,39.0,29.83,North,355,5.0,-999.0,31,-99.99,,,0.00,779,weatherlink.com 1.10,2013-08-21 18:08:00,
2013-08-21 11:23:00,72.5,39.0,29.83,NW,310,6.0,-999.0,30,-99.99,,,0.00,737,weatherlink.com 1.10,2013-08-21 18:23:00,
2013-08-21 11:38:00,73.3,39.0,29.82,NW,322,7.0,-999.0,29,-99.99,,,0.00,872,weatherlink.com 1.10,2013-08-21 18:38:00,
2013-08-21 11:53:00,72.7,39.0,29.82,NNE,15,6.0,-999.0,30,-99.99,,,0.00,446,weatherlink.com 1.10,2013-08-21 18:53:00,
2013-08-21 12:08:00,73.4,38.0,29.82,North,355,4.0,-999.0,28,-99.99,,,0.00,322,weatherlink.com 1.10,2013-08-21 19:08:00,
2013-08-21 12:23:00,74.8,40.0,29.82,North,350,5.0,-999.0,28,-99.99,,,0.00,795,weatherlink.com 1.10,2013-08-21 19:23:00,
2013-08-21 12:38:00,75.4,36.0,29.82,North,355,5.0,-999.0,24,-99.99,,,0.00,972,weatherlink.com 1.10,2013-08-21 19:38:00,
2013-08-21 12:53:00,76.0,39.0,29.81,NNE,13,8.0,-999.0,26,-99.99,,,0.00,863,weatherlink.com 1.10,2013-08-21 19:53:00,
2013-08-21 13:08:00,77.0,37.0,29.81,NNE,15,0.0,-999.0,24,-99.99,,,0.00,462,weatherlink.com 1.10,2013-08-21 20:08:00,
2013-08-21 13:23:00,76.6,37.0,29.81,NNW,337,5.0,-999.0,24,-99.99,,,0.00,359,weatherlink.com 1.10,2013-08-21 20:23:00,
2013-08-21 13:38:00,77.1,35.0,29.80,North,360,5.0,-999.0,22,-99.99,,,0.00,536,weatherlink.com 1.10,2013-08-21 20:38:00,
2013-08-21 13:53:00,77.4,36.0,29.81,NW,315,7.0,-999.0,22,-99.99,,,0.00,772,weatherlink.com 1.10,2013-08-21 20:53:00,
2013-08-21 14:08:00,77.2,35.0,29.80,NW,317,7.0,-999.0,22,-99.99,,,0.00,534,weatherlink.com 1.10,2013-08-21 21:08:00,
2013-08-21 14:23:00,78.4,33.0,29.80,North,5,6.0,-999.0,19,-99.99,,,0.00,666,weatherlink.com 1.10,2013-08-21 21:23:00,
2013-08-21 14:38:00,79.6,34.0,29.79,ENE,71,5.0,-999.0,19,-99.99,,,0.00,756,weatherlink.com 1.10,2013-08-21 21:38:00,
2013-08-21 14:53:00,80.6,33.0,29.79,NW,320,4.0,-999.0,18,-99.99,,,0.00,758,weatherlink.com 1.10,2013-08-21 21:53:00,
2013-08-21 15:08:00,79.9,33.0,29.78,NE,44,0.0,-999.0,18,-99.99,,,0.00,496,weatherlink.com 1.10,2013-08-21 22:08:00,
2013-08-21 15:23:00,80.9,34.0,29.78,NNE,30,9.0,-999.0,18,-99.99,,,0.00,796,weatherlink.com 1.10,2013-08-21 22:23:00,
2013-08-21 15:38:00,80.5,33.0,29.77,North,355,5.0,-999.0,18,-99.99,,,0.00,439,weatherlink.com 1.10,2013-08-21 22:38:00,
2013-08-21 15:53:00,80.4,33.0,29.77,North,360,7.0,-999.0,18,-99.99,,,0.00,311,weatherlink.com 1.10,2013-08-21 22:53:00,
2013-08-21 16:08:00,81.1,34.0,29.76,North,360,4.0,-999.0,18,-99.99,,,0.00,564,weatherlink.com 1.10,2013-08-21 23:08:00,
2013-08-21 16:23:00,81.7,33.0,29.76,NNE,15,10.0,-999.0,17,-99.99,,,0.00,592,weatherlink.com 1.10,2013-08-21 23:23:00,
2013-08-21 16:38:00,81.8,33.0,29.75,NNW,344,7.0,-999.0,17,-99.99,,,0.00,555,weatherlink.com 1.10,2013-08-21 23:38:00,
2013-08-21 16:53:00,83.0,34.0,29.75,East,86,2.0,-999.0,17,-99.99,,,0.00,309,weatherlink.com 1.10,2013-08-21 23:53:00,
2013-08-21 17:08:00,82.6,34.0,29.75,NE,51,7.0,-999.0,17,-99.99,,,0.00,420,weatherlink.com 1.10,2013-08-22 00:08:00,
2013-08-21 17:23:00,83.1,34.0,29.74,ENE,60,3.0,-999.0,17,-99.99,,,0.00,362,weatherlink.com 1.10,2013-08-22 00:23:00,
2013-08-21 17:38:00,82.3,35.0,29.74,NNE,27,3.0,-999.0,18,-99.99,,,0.00,336,weatherlink.com 1.10,2013-08-22 00:38:00,
2013-08-21 17:53:00,82.6,34.0,29.74,NW,314,7.0,-999.0,17,-99.99,,,0.00,274,weatherlink.com 1.10,2013-08-22 00:53:00,
2013-08-21 18:08:00,81.8,34.0,29.74,NW,315,6.0,-999.0,18,-99.99,,,0.00,220,weatherlink.com 1.10,2013-08-22 01:08:00,
2013-08-21 18:23:00,81.5,34.0,29.74,North,360,9.0,-999.0,18,-99.99,,,0.00,183,weatherlink.com 1.10,2013-08-22 01:23:00,
2013-08-21 18:38:00,81.8,34.0,29.74,North,355,5.0,-999.0,18,-99.99,,,0.00,160,weatherlink.com 1.10,2013-08-22 01:38:00,
2013-08-21 18:53:00,81.4,34.0,29.74,NNE,19,6.0,-999.0,18,-99.99,,,0.00,123,weatherlink.com 1.10,2013-08-22 01:53:00,
2013-08-21 19:08:00,79.9,35.0,29.74,NW,314,5.0,-999.0,20,-99.99,,,0.00,54,weatherlink.com 1.10,2013-08-22 02:08:00,
2013-08-21 19:23:00,79.2,35.0,29.75,NNW,345,7.0,-999.0,20,-99.99,,,0.00,51,weatherlink.com 1.10,2013-08-22 02:23:00,
2013-08-21 19:38:00,78.4,34.0,29.75,NW,320,5.0,-999.0,20,-99.99,,,0.00,30,weatherlink.com 1.10,2013-08-22 02:38:00,
2013-08-21 19:53:00,77.2,34.0,29.75,NW,323,6.0,-999.0,21,-99.99,,,0.00,9,weatherlink.com 1.10,2013-08-22 02:53:00,
2013-08-21 20:08:00,75.8,34.0,29.75,NW,325,4.0,-999.0,22,-99.99,,,0.00,0,weatherlink.com 1.10,2013-08-22 03:08:00,
2013-08-21 20:23:00,74.6,34.0,29.76,NW,325,5.0,-999.0,23,-99.99,,,0.00,0,weatherlink.com 1.10,2013-08-22 03:23:00,
2013-08-21 20:38:00,73.7,35.0,29.76,NW,323,4.0,-999.0,24,-99.99,,,0.00,0,weatherlink.com 1.10,2013-08-22 03:38:00,
2013-08-21 20:53:00,73.0,34.0,29.77,WNW,297,3.0,-999.0,24,-99.99,,,0.00,0,weatherlink.com 1.10,2013-08-22 03:53:00,
2013-08-21 21:08:00,72.5,36.0,29.77,WNW,297,4.0,-999.0,26,-99.99,,,0.00,0,weatherlink.com 1.10,2013-08-22 04:08:00,
2013-08-21 21:23:00,71.9,36.0,29.77,WNW,303,4.0,-999.0,27,-99.99,,,0.00,0,weatherlink.com 1.10,2013-08-22 04:23:00,
2013-08-21 21:38:00,71.8,36.0,29.77,WNW,292,5.0,-999.0,27,-99.99,,,0.00,0,weatherlink.com 1.10,2013-08-22 04:38:00,
2013-08-21 21:53:00,71.6,36.0,29.77,WNW,289,6.0,-999.0,27,-99.99,,,0.00,0,weatherlink.com 1.10,2013-08-22 04:53:00,
2013-08-21 22:08:00,71.4,36.0,29.78,WNW,298,3.0,-999.0,27,-99.99,,,0.00,0,weatherlink.com 1.10,2013-08-22 05:08:00,
2013-08-21 22:23:00,71.2,35.0,29.78,WNW,288,3.0,-999.0,27,-99.99,,,0.00,0,weatherlink.com 1.10,2013-08-22 05:23:00,
2013-08-21 22:38:00,70.9,36.0,29.78,West,281,4.0,-999.0,28,-99.99,,,0.00,0,weatherlink.com 1.10,2013-08-22 05:38:00,
2013-08-21 22:53:00,70.3,36.0,29.78,WNW,290,6.0,-999.0,28,-99.99,,,0.00,0,weatherlink.com 1.10,2013-08-22 05:53:00,
2013-08-21 23:08:00,70.4,36.0,29.78,WNW,290,4.0,-999.0,28,-99.99,,,0.00,0,weatherlink.com 1.10,2013-08-22 06:08:00,
2013-08-21 23:23:00,69.6,35.0,29.78,WSW,257,7.0,-999.0,28,-99.99,,,0.00,0,weatherlink.com 1.10,2013-08-22 06:23:00,
2013-08-21 23:38:00,68.0,35.0,29.78,SW,236,3.0,-999.0,30,-99.99,,,0.00,0,weatherlink.com 1.10,2013-08-22 06:38:00,
2013-08-21 23:53:00,69.2,36.0,29.78,SW,236,4.0,-999.0,29,-99.99,,,0.00,0,weatherlink.com 1.10,2013-08-22 06:53:00,